Time;durP1;ratioP1;P1;durP2;ratioP2;P2;SDS_P1;SDS_P2;PMS_P1;PMS_P2;Temp;Humidity;BMP_temperature;BMP_pressure;BME280_temperature;BME280_humidity;BME280_pressure;Samples;Min_cycle;Max_cycle;Signal;HPM_P1;HPM_P2
2023/12/15 00:00:34;;;;;;;22.50;10.75;;;6.20;89.30;;;;;;5046134;28;20056;-78
2023/12/15 00:03:02;;;;;;;19.60;9.87;;;6.20;89.30;;;;;;5059272;28;20606;-77
2023/12/15 00:05:29;;;;;;;22.83;10.95;;;6.20;89.30;;;;;;5057651;28;20045;-77
2023/12/15 00:07:56;;;;;;;25.70;11.30;;;6.20;89.50;;;;;;5045204;28;20052;-78
2023/12/15 00:10:23;;;;;;;23.33;10.68;;;6.30;89.60;;;;;;5050402;28;20045;-78
2023/12/15 00:12:50;;;;;;;22.90;11.13;;;6.30;89.70;;;;;;5067036;28;20046;-78
2023/12/15 00:15:20;;;;;;;24.03;11.17;;;6.30;89.80;;;;;;5036349;28;20161;-78
2023/12/15 00:17:47;;;;;;;21.30;10.18;;;6.30;89.90;;;;;;5059789;28;20132;-78
2023/12/15 00:20:16;;;;;;;24.42;11.18;;;6.30;89.80;;;;;;5041066;28;20095;-77
2023/12/15 00:22:43;;;;;;;23.63;11.40;;;6.30;90.00;;;;;;5064837;28;20088;-77
2023/12/15 00:25:11;;;;;;;21.95;11.15;;;6.40;90.00;;;;;;5040361;28;20054;-78
2023/12/15 00:27:38;;;;;;;22.47;10.90;;;6.40;90.00;;;;;;5046207;28;20045;-78
2023/12/15 00:30:07;;;;;;;26.13;12.07;;;6.40;90.10;;;;;;5059143;28;20837;-78
2023/12/15 00:32:34;;;;;;;25.17;12.40;;;6.40;90.30;;;;;;5046180;28;20076;-78
2023/12/15 00:35:01;;;;;;;15.80;6.60;;;6.40;90.30;;;;;;5056517;28;20064;-78
2023/12/15 00:37:29;;;;;;;24.38;11.15;;;6.40;90.40;;;;;;5042166;28;20052;-78
2023/12/15 00:39:57;;;;;;;24.83;10.87;;;6.50;90.40;;;;;;5044277;28;20072;-78
2023/12/15 00:42:24;;;;;;;24.17;11.73;;;6.50;90.30;;;;;;5055988;28;20057;-78
2023/12/15 00:44:51;;;;;;;25.13;11.82;;;6.50;90.30;;;;;;5053250;28;20049;-78
2023/12/15 00:47:18;;;;;;;20.50;9.82;;;6.50;90.30;;;;;;5040074;28;20056;-78
2023/12/15 00:49:45;;;;;;;25.17;12.90;;;6.50;90.40;;;;;;5063045;28;20052;-78
2023/12/15 00:52:16;;;;;;;22.33;10.80;;;6.50;90.40;;;;;;5043814;28;20052;-78
2023/12/15 00:54:45;;;;;;;20.63;8.77;;;6.50;90.50;;;;;;5062792;28;20116;-77
2023/12/15 00:57:12;;;;;;;26.85;14.60;;;6.50;90.50;;;;;;5043574;28;20053;-77
2023/12/15 00:59:39;;;;;;;21.55;11.15;;;6.50;90.60;;;;;;5043271;28;20495;-78
2023/12/15 01:02:07;;;;;;;25.20;11.52;;;6.50;90.60;;;;;;5054637;28;20549;-78
2023/12/15 01:04:35;;;;;;;21.80;10.87;;;6.50;90.60;;;;;;5060092;28;20086;-78
2023/12/15 01:07:02;;;;;;;20.60;9.43;;;6.50;90.60;;;;;;5049081;28;20121;-77
2023/12/15 01:09:29;;;;;;;25.08;12.52;;;6.50;90.70;;;;;;5044570;28;20487;-77
2023/12/15 01:11:57;;;;;;;28.20;13.65;;;6.50;90.70;;;;;;5062138;28;20050;-78
2023/12/15 01:14:24;;;;;;;28.50;13.55;;;6.50;90.80;;;;;;5066443;28;20463;-78
2023/12/15 01:16:51;;;;;;;22.77;12.03;;;6.60;90.90;;;;;;5062605;28;20049;-78
2023/12/15 01:19:18;;;;;;;23.15;10.88;;;6.60;91.00;;;;;;5045508;28;20053;-78
2023/12/15 01:21:45;;;;;;;26.45;12.38;;;6.60;91.10;;;;;;5051353;28;20060;-78
2023/12/15 01:24:13;;;;;;;21.80;9.35;;;6.60;91.10;;;;;;5052357;28;20049;-78
2023/12/15 01:26:40;;;;;;;29.20;13.90;;;6.60;91.10;;;;;;5062853;28;20045;-78
2023/12/15 01:29:08;;;;;;;11.97;5.27;;;6.60;91.10;;;;;;5043052;28;20053;-77
2023/12/15 01:31:36;;;;;;;26.30;13.50;;;6.60;91.20;;;;;;5046349;28;20057;-78
2023/12/15 01:34:03;;;;;;;28.63;14.77;;;6.60;91.20;;;;;;5062692;28;20054;-78
2023/12/15 01:36:30;;;;;;;28.73;14.48;;;6.60;91.20;;;;;;5051331;28;20995;-78
2023/12/15 01:38:57;;;;;;;32.42;13.90;;;6.70;91.20;;;;;;5043069;28;20045;-78
2023/12/15 01:41:24;;;;;;;25.80;11.57;;;6.60;91.30;;;;;;5033055;28;20041;-77
2023/12/15 01:43:53;;;;;;;31.25;14.00;;;6.70;91.40;;;;;;5057449;28;20058;-78
2023/12/15 01:46:22;;;;;;;28.85;14.15;;;6.70;91.50;;;;;;5051434;28;20064;-78
2023/12/15 01:48:49;;;;;;;30.92;13.50;;;6.70;91.50;;;;;;5046117;28;20510;-78
2023/12/15 01:51:16;;;;;;;32.42;15.10;;;6.70;91.40;;;;;;5042714;28;20050;-78
2023/12/15 01:53:43;;;;;;;31.63;14.37;;;6.70;91.50;;;;;;5043673;28;20053;-78
2023/12/15 01:56:11;;;;;;;30.10;12.77;;;6.70;91.50;;;;;;5056734;28;20068;-78
2023/12/15 01:58:39;;;;;;;27.35;12.60;;;6.80;91.60;;;;;;5048223;28;20520;-78
2023/12/15 02:01:07;;;;;;;29.10;13.88;;;6.80;91.60;;;;;;5056529;28;20056;-78
2023/12/15 02:03:36;;;;;;;30.17;15.10;;;6.80;91.60;;;;;;5058037;28;20049;-78
2023/12/15 02:06:04;;;;;;;31.90;15.50;;;6.80;91.60;;;;;;5053561;28;20094;-78
2023/12/15 02:08:31;;;;;;;28.33;13.27;;;6.80;91.70;;;;;;5043681;28;20137;-78
2023/12/15 02:10:58;;;;;;;29.40;14.95;;;6.80;91.70;;;;;;5039450;28;21005;-78
2023/12/15 02:13:26;;;;;;;30.88;13.25;;;6.80;91.70;;;;;;5044078;28;20054;-78
2023/12/15 02:15:53;;;;;;;33.28;13.88;;;6.80;91.80;;;;;;5055482;28;20057;-78
2023/12/15 02:18:20;;;;;;;30.50;11.50;;;6.90;91.80;;;;;;5058233;28;20060;-78
2023/12/15 02:20:48;;;;;;;32.58;15.30;;;6.90;91.90;;;;;;5043267;28;20057;-78
2023/12/15 02:23:17;;;;;;;29.63;13.23;;;6.90;91.80;;;;;;5042697;28;20050;-78
2023/12/15 02:25:44;;;;;;;35.42;14.80;;;6.90;91.80;;;;;;5067453;28;20100;-78
2023/12/15 02:28:11;;;;;;;32.45;14.75;;;6.90;91.80;;;;;;5061643;28;20058;-77
2023/12/15 02:30:38;;;;;;;30.60;14.50;;;6.90;91.80;;;;;;5085809;28;20132;-78
2023/12/15 02:33:05;;;;;;;23.70;10.52;;;7.00;91.80;;;;;;5044980;28;20061;-78
2023/12/15 02:35:32;;;;;;;28.67;12.65;;;7.00;91.90;;;;;;5066919;28;20062;-78
2023/12/15 02:38:07;;;;;;;30.30;14.63;;;7.00;91.80;;;;;;5053181;28;20054;-78
2023/12/15 02:40:35;;;;;;;30.13;15.15;;;7.00;91.80;;;;;;5051626;28;20085;-78
2023/12/15 02:43:02;;;;;;;29.10;12.10;;;7.00;91.80;;;;;;5048222;28;20155;-78
2023/12/15 02:45:29;;;;;;;29.00;12.40;;;7.00;91.90;;;;;;5040990;28;20053;-78
2023/12/15 02:47:56;;;;;;;29.45;13.52;;;7.00;91.90;;;;;;5043946;28;20057;-78
2023/12/15 02:50:24;;;;;;;36.03;14.05;;;7.00;92.00;;;;;;5060417;28;20594;-77
2023/12/15 02:52:51;;;;;;;32.78;14.32;;;7.00;91.90;;;;;;5064418;28;20057;-78
2023/12/15 02:55:18;;;;;;;34.13;15.27;;;7.00;91.80;;;;;;5045241;28;20058;-78
2023/12/15 02:57:47;;;;;;;28.13;14.40;;;7.00;91.90;;;;;;5067801;28;20125;-78
2023/12/15 03:00:15;;;;;;;33.03;13.82;;;7.00;91.90;;;;;;5059950;28;20049;-78
2023/12/15 03:02:42;;;;;;;27.40;13.27;;;7.10;91.90;;;;;;5047225;28;20108;-78
2023/12/15 03:05:09;;;;;;;24.15;11.32;;;7.10;91.90;;;;;;5049730;28;20136;-78
2023/12/15 03:07:37;;;;;;;25.20;11.07;;;7.10;91.90;;;;;;5057456;28;20057;-78
2023/12/15 03:10:06;;;;;;;23.00;11.10;;;7.10;91.80;;;;;;5057541;28;20042;-78
2023/12/15 03:12:33;;;;;;;33.58;14.10;;;7.10;91.80;;;;;;5056419;28;20164;-78
2023/12/15 03:15:01;;;;;;;30.23;13.68;;;7.10;91.80;;;;;;5048519;28;20962;-78
2023/12/15 03:17:30;;;;;;;37.67;16.17;;;7.10;91.90;;;;;;5048254;28;20127;-78
2023/12/15 03:19:58;;;;;;;32.47;14.90;;;7.20;92.00;;;;;;5063520;28;20050;-78
2023/12/15 03:22:25;;;;;;;34.83;16.23;;;7.20;91.90;;;;;;5052614;28;20051;-79
2023/12/15 03:24:52;;;;;;;30.13;14.02;;;7.20;91.90;;;;;;5060020;28;20050;-78
2023/12/15 03:27:19;;;;;;;32.85;14.10;;;7.20;91.90;;;;;;5056168;28;20057;-77
2023/12/15 03:29:46;;;;;;;32.85;14.65;;;7.20;91.90;;;;;;5064444;28;20137;-78
2023/12/15 03:32:14;;;;;;;30.53;13.37;;;7.20;92.00;;;;;;5047421;28;20633;-77
2023/12/15 03:34:41;;;;;;;31.23;14.13;;;7.20;92.00;;;;;;5063898;28;20049;-78
2023/12/15 03:37:08;;;;;;;29.95;13.98;;;7.20;91.90;;;;;;5047942;28;20050;-78
2023/12/15 03:39:35;;;;;;;30.60;13.85;;;7.20;91.90;;;;;;5063051;28;20050;-78
2023/12/15 03:42:06;;;;;;;36.97;15.82;;;7.20;91.90;;;;;;5045917;28;20045;-77
2023/12/15 03:44:33;;;;;;;32.47;14.10;;;7.20;91.90;;;;;;5047499;28;20057;-78
2023/12/15 03:47:00;;;;;;;32.35;15.85;;;7.20;91.90;;;;;;5062664;28;20132;-78
2023/12/15 03:49:29;;;;;;;26.85;11.88;;;7.20;91.90;;;;;;5044963;28;20073;-78
2023/12/15 03:51:57;;;;;;;33.85;15.15;;;7.20;92.00;;;;;;5056496;28;20050;-78
2023/12/15 03:54:24;;;;;;;34.15;13.95;;;7.20;92.00;;;;;;5064021;28;20049;-78
2023/12/15 03:56:56;;;;;;;33.53;15.10;;;7.20;92.00;;;;;;5062058;28;20056;-78
2023/12/15 03:59:23;;;;;;;30.40;13.63;;;7.20;92.00;;;;;;5038905;28;20112;-79
2023/12/15 04:01:50;;;;;;;36.72;15.88;;;7.20;92.00;;;;;;5061661;28;20052;-78
2023/12/15 04:04:18;;;;;;;34.90;13.85;;;7.20;92.10;;;;;;5040999;28;20490;-78
2023/12/15 04:06:47;;;;;;;32.90;14.20;;;7.20;92.10;;;;;;5061866;28;20049;-78
2023/12/15 04:09:15;;;;;;;28.50;12.33;;;7.20;92.10;;;;;;5061856;28;20652;-78
2023/12/15 04:11:42;;;;;;;32.38;13.27;;;7.20;92.20;;;;;;5046057;28;20092;-78
2023/12/15 04:14:09;;;;;;;33.75;15.05;;;7.20;92.10;;;;;;5062881;28;20057;-78
2023/12/15 04:16:36;;;;;;;33.38;14.23;;;7.30;92.10;;;;;;5047708;28;20053;-78
2023/12/15 04:19:03;;;;;;;27.92;11.40;;;7.30;92.20;;;;;;5044574;28;20155;-78
2023/12/15 04:21:30;;;;;;;28.07;13.23;;;7.30;92.20;;;;;;5063496;28;20053;-77
2023/12/15 04:23:59;;;;;;;30.50;13.13;;;7.30;92.20;;;;;;5047145;28;20041;-79
2023/12/15 04:26:26;;;;;;;37.17;17.90;;;7.30;92.20;;;;;;5045606;28;20545;-78
2023/12/15 04:28:53;;;;;;;33.92;14.57;;;7.30;92.20;;;;;;5063284;28;20049;-78
2023/12/15 04:31:20;;;;;;;34.05;13.70;;;7.30;92.10;;;;;;5047736;28;21020;-78
2023/12/15 04:33:48;;;;;;;29.00;11.27;;;7.20;92.10;;;;;;5046444;28;20052;-78
2023/12/15 04:36:17;;;;;;;34.95;11.45;;;7.30;92.10;;;;;;5047356;28;20068;-78
2023/12/15 04:38:44;;;;;;;29.55;13.07;;;7.30;92.10;;;;;;5048679;28;20053;-78
2023/12/15 04:41:19;;;;;;;34.50;14.32;;;7.30;92.10;;;;;;5062944;28;20489;-78
2023/12/15 04:43:46;;;;;;;30.88;13.55;;;7.30;92.10;;;;;;5062443;28;20057;-78
2023/12/15 04:46:22;;;;;;;35.17;14.43;;;7.30;92.10;;;;;;5043763;28;20521;-78
2023/12/15 04:48:48;;;;;;;29.42;11.30;;;7.20;92.10;;;;;;5040404;28;20049;-77
2023/12/15 04:51:15;;;;;;;28.17;13.57;;;7.30;92.10;;;;;;5047215;28;20057;-78
2023/12/15 04:53:42;;;;;;;27.15;12.18;;;7.30;92.10;;;;;;5063006;28;20502;-78
2023/12/15 04:56:10;;;;;;;32.80;13.88;;;7.20;92.00;;;;;;5063418;28;20513;-78
2023/12/15 04:58:39;;;;;;;28.63;12.30;;;7.20;92.00;;;;;;5045946;28;20126;-78
2023/12/15 05:01:25;;;;;;;27.73;11.25;;;7.30;92.10;;;;;;5123259;27;20391;-78
2023/12/15 05:03:52;;;;;;;28.85;11.85;;;7.20;92.10;;;;;;5124219;27;20164;-78
2023/12/15 05:06:21;;;;;;;26.25;10.73;;;7.20;92.10;;;;;;5123726;27;20445;-78
2023/12/15 05:08:48;;;;;;;33.25;13.85;;;7.20;92.10;;;;;;5123824;27;20418;-79
2023/12/15 05:11:15;;;;;;;32.47;11.73;;;7.20;92.00;;;;;;5123767;27;20488;-79
2023/12/15 05:13:43;;;;;;;28.65;12.65;;;7.20;92.00;;;;;;5125258;27;20357;-78
2023/12/15 05:16:10;;;;;;;30.88;12.60;;;7.20;92.00;;;;;;5123877;27;20063;-79
2023/12/15 05:18:38;;;;;;;27.38;11.07;;;7.20;92.00;;;;;;5105698;27;20046;-78
2023/12/15 05:21:06;;;;;;;29.85;12.68;;;7.20;92.00;;;;;;5106545;27;20071;-78
2023/12/15 05:23:34;;;;;;;35.40;15.17;;;7.20;92.00;;;;;;5125560;27;20520;-78
2023/12/15 05:26:01;;;;;;;31.80;12.77;;;7.20;92.10;;;;;;5125681;27;20266;-79
2023/12/15 05:28:28;;;;;;;29.23;11.90;;;7.20;92.00;;;;;;5124106;27;20044;-78
2023/12/15 05:30:56;;;;;;;31.95;13.32;;;7.20;92.10;;;;;;5123821;27;20135;-78
2023/12/15 05:33:23;;;;;;;33.47;13.43;;;7.20;92.10;;;;;;5124593;27;20103;-78
2023/12/15 05:35:51;;;;;;;29.83;13.70;;;7.20;92.10;;;;;;5123587;27;20082;-78
2023/12/15 05:38:18;;;;;;;29.00;12.63;;;7.20;92.10;;;;;;5123617;27;20260;-78
2023/12/15 05:40:45;;;;;;;29.25;12.68;;;7.20;92.10;;;;;;5123274;27;20099;-79
2023/12/15 05:43:12;;;;;;;31.30;12.23;;;7.20;92.20;;;;;;5122727;27;20048;-78
2023/12/15 05:45:39;;;;;;;28.80;10.45;;;7.20;92.10;;;;;;5118430;27;20051;-78
2023/12/15 05:48:06;;;;;;;31.10;13.20;;;7.20;92.20;;;;;;5124721;27;20055;-79
2023/12/15 05:50:33;;;;;;;26.55;12.00;;;7.20;92.10;;;;;;5124584;27;20779;-78
2023/12/15 05:53:02;;;;;;;33.53;14.35;;;7.20;92.20;;;;;;5089198;27;20048;-79
2023/12/15 05:55:29;;;;;;;32.20;12.85;;;7.20;92.20;;;;;;5105626;27;20078;-78
2023/12/15 05:57:56;;;;;;;33.40;13.50;;;7.20;92.10;;;;;;5123389;27;20048;-79
2023/12/15 06:00:23;;;;;;;32.90;13.00;;;7.20;92.10;;;;;;5122586;27;20133;-78
2023/12/15 06:02:52;;;;;;;29.88;12.35;;;7.20;92.10;;;;;;5122536;27;20755;-79
2023/12/15 06:05:19;;;;;;;33.10;12.20;;;7.20;92.20;;;;;;5124727;27;20052;-78
2023/12/15 06:07:46;;;;;;;29.75;11.88;;;7.20;92.20;;;;;;5123026;27;20058;-78
2023/12/15 06:10:14;;;;;;;33.00;12.18;;;7.20;92.10;;;;;;5114808;27;20235;-79
2023/12/15 06:12:41;;;;;;;30.33;12.23;;;7.20;92.20;;;;;;5103946;27;20055;-78
2023/12/15 06:15:10;;;;;;;25.13;12.52;;;7.20;92.20;;;;;;5110298;28;20271;-78
2023/12/15 06:17:37;;;;;;;29.75;11.27;;;7.20;92.10;;;;;;5092055;28;20048;-78
2023/12/15 06:20:07;;;;;;;30.63;11.10;;;7.20;92.20;;;;;;5109067;28;20051;-78
2023/12/15 06:22:34;;;;;;;26.65;11.63;;;7.20;92.20;;;;;;5105085;28;20794;-79
2023/12/15 06:25:01;;;;;;;31.33;11.47;;;7.20;92.10;;;;;;5109742;28;20511;-78
2023/12/15 06:27:29;;;;;;;29.17;11.80;;;7.20;92.10;;;;;;5110739;28;20861;-78
2023/12/15 06:29:57;;;;;;;28.23;11.25;;;7.20;92.00;;;;;;5108529;28;20052;-78
2023/12/15 06:32:25;;;;;;;30.90;11.45;;;7.20;92.00;;;;;;5108755;28;21002;-79
2023/12/15 06:34:52;;;;;;;28.80;12.93;;;7.20;92.00;;;;;;5110583;28;20059;-78
2023/12/15 06:37:20;;;;;;;28.37;11.67;;;7.20;91.90;;;;;;5110457;28;20962;-78
2023/12/15 06:39:47;;;;;;;31.15;12.48;;;7.20;91.90;;;;;;5110225;28;20309;-78
2023/12/15 06:42:14;;;;;;;28.88;11.88;;;7.20;91.80;;;;;;5099579;28;20055;-78
2023/12/15 06:44:42;;;;;;;31.00;12.85;;;7.20;91.80;;;;;;5091724;28;20048;-78
2023/12/15 06:47:10;;;;;;;31.67;13.15;;;7.20;91.80;;;;;;5108319;28;20159;-79
2023/12/15 06:49:37;;;;;;;29.77;12.53;;;7.20;91.80;;;;;;5096739;28;20513;-79
2023/12/15 06:52:05;;;;;;;40.97;14.23;;;7.20;91.70;;;;;;5091529;28;20273;-79
2023/12/15 06:54:53;;;;;;;36.08;13.98;;;7.20;91.70;;;;;;5112096;27;20055;-79
2023/12/15 06:57:20;;;;;;;30.75;12.15;;;7.20;91.70;;;;;;5044776;28;20063;-78
2023/12/15 06:59:49;;;;;;;32.90;12.25;;;7.20;91.60;;;;;;5047309;28;20052;-78
2023/12/15 07:02:16;;;;;;;35.40;12.93;;;7.20;91.60;;;;;;5047621;28;20053;-78
2023/12/15 07:04:43;;;;;;;31.25;12.00;;;7.20;91.70;;;;;;5042283;28;20279;-79
2023/12/15 07:07:10;;;;;;;29.20;11.05;;;7.20;91.60;;;;;;5047044;28;20085;-79
2023/12/15 07:09:38;;;;;;;33.05;12.57;;;7.20;91.60;;;;;;5048101;28;20057;-78
2023/12/15 07:12:06;;;;;;;32.40;11.05;;;7.20;91.60;;;;;;5047882;28;20108;-78
2023/12/15 07:14:33;;;;;;;41.20;13.00;;;7.10;91.60;;;;;;5046792;28;20050;-78
2023/12/15 07:17:02;;;;;;;42.50;12.13;;;7.10;91.60;;;;;;5045793;28;20263;-78
2023/12/15 07:19:29;;;;;;;35.00;11.68;;;7.10;91.70;;;;;;5047472;28;20841;-79
2023/12/15 07:21:56;;;;;;;38.10;13.27;;;7.10;91.70;;;;;;5038844;28;20045;-78
2023/12/15 07:24:24;;;;;;;32.17;11.88;;;7.10;91.80;;;;;;5042027;28;20050;-79
2023/12/15 07:26:52;;;;;;;32.73;12.10;;;7.00;91.70;;;;;;5036902;28;20046;-79
2023/12/15 07:29:21;;;;;;;26.77;10.70;;;7.10;91.80;;;;;;5035663;28;20284;-79
2023/12/15 07:31:49;;;;;;;30.45;11.85;;;7.00;91.80;;;;;;5037838;28;20237;-79
2023/12/15 07:34:18;;;;;;;33.75;12.57;;;7.00;91.80;;;;;;5032289;28;20065;-78
2023/12/15 07:36:45;;;;;;;25.98;10.35;;;7.00;91.80;;;;;;5046173;28;20049;-78
2023/12/15 07:39:30;;;;;;;26.73;10.57;;;7.00;91.90;;;;;;5034510;28;20926;-78
2023/12/15 07:41:57;;;;;;;32.38;11.32;;;7.00;91.90;;;;;;5039911;28;20290;-79
2023/12/15 07:44:24;;;;;;;28.67;10.85;;;7.00;91.90;;;;;;5043110;28;20053;-80
2023/12/15 07:46:54;;;;;;;25.05;9.00;;;7.00;91.90;;;;;;5041771;28;20132;-79
2023/12/15 07:49:23;;;;;;;28.35;11.15;;;7.00;91.90;;;;;;5047208;28;20053;-78
2023/12/15 07:51:50;;;;;;;27.53;11.37;;;7.00;91.90;;;;;;5026711;28;20060;-78
2023/12/15 07:54:18;;;;;;;25.33;10.32;;;7.00;91.90;;;;;;5043506;28;20365;-76
2023/12/15 07:56:45;;;;;;;29.98;9.93;;;7.00;91.80;;;;;;5043341;28;20064;-76
2023/12/15 07:59:12;;;;;;;26.85;9.70;;;7.00;91.80;;;;;;5038725;28;20140;-76
2023/12/15 08:01:39;;;;;;;27.40;9.13;;;7.00;91.70;;;;;;5039938;28;20077;-77
2023/12/15 08:04:06;;;;;;;27.83;10.60;;;7.00;91.80;;;;;;5041725;28;20131;-76
2023/12/15 08:06:37;;;;;;;26.70;9.05;;;7.00;91.80;;;;;;5025352;28;21130;-75
2023/12/15 08:09:04;;;;;;;25.02;9.15;;;7.00;91.80;;;;;;5042475;28;20049;-75
2023/12/15 08:11:32;;;;;;;28.02;10.50;;;7.00;91.80;;;;;;5043280;28;20057;-75
2023/12/15 08:13:59;;;;;;;21.90;8.77;;;7.00;91.80;;;;;;5042486;28;20930;-75
2023/12/15 08:16:26;;;;;;;27.13;10.33;;;7.00;91.80;;;;;;5045953;28;20057;-76
2023/12/15 08:18:53;;;;;;;27.52;9.88;;;7.00;91.80;;;;;;5043445;28;20388;-74
2023/12/15 08:21:21;;;;;;;25.42;9.63;;;7.00;91.70;;;;;;5046016;28;20499;-75
2023/12/15 08:23:49;;;;;;;26.10;10.20;;;7.00;91.80;;;;;;5044996;28;20057;-76
2023/12/15 08:26:23;;;;;;;25.67;9.13;;;7.00;91.80;;;;;;5047268;28;20085;-76
2023/12/15 08:28:53;;;;;;;27.70;9.50;;;7.00;91.80;;;;;;5045022;28;20049;-76
2023/12/15 08:31:20;;;;;;;27.38;9.27;;;7.00;91.90;;;;;;5046276;28;20379;-76
2023/12/15 08:33:47;;;;;;;22.52;8.20;;;7.00;91.80;;;;;;5045891;28;20549;-76
2023/12/15 08:36:14;;;;;;;19.08;7.90;;;7.00;91.90;;;;;;5044943;28;20999;-75
2023/12/15 08:38:41;;;;;;;24.88;8.85;;;7.00;91.90;;;;;;5045910;28;20045;-76
2023/12/15 08:41:14;;;;;;;21.17;8.67;;;7.00;91.90;;;;;;5039315;28;20888;-78
2023/12/15 08:43:41;;;;;;;22.83;8.88;;;7.00;91.90;;;;;;5044448;28;20277;-76
2023/12/15 08:46:08;;;;;;;27.20;9.10;;;7.00;92.00;;;;;;5043566;28;20128;-77
2023/12/15 08:48:35;;;;;;;22.92;7.93;;;7.00;92.00;;;;;;5045459;28;20103;-75
2023/12/15 08:51:02;;;;;;;26.98;8.55;;;7.00;92.00;;;;;;5044383;28;20049;-76
2023/12/15 08:53:29;;;;;;;23.53;8.23;;;7.00;92.00;;;;;;5045483;28;20054;-77
2023/12/15 08:55:56;;;;;;;24.77;7.75;;;7.00;92.00;;;;;;5043598;28;20288;-81
2023/12/15 08:58:25;;;;;;;20.83;7.50;;;7.10;92.10;;;;;;5046758;28;20057;-77
2023/12/15 09:00:53;;;;;;;27.95;8.80;;;7.10;92.10;;;;;;5042226;28;20046;-78
2023/12/15 09:03:20;;;;;;;20.65;7.53;;;7.20;92.10;;;;;;5045601;28;20068;-77
2023/12/15 09:05:47;;;;;;;28.63;8.50;;;7.20;92.10;;;;;;5043729;28;20146;-76
2023/12/15 09:08:14;;;;;;;19.77;7.43;;;7.20;92.10;;;;;;5039019;28;20281;-76
2023/12/15 09:10:43;;;;;;;22.70;8.27;;;7.20;92.20;;;;;;5045002;28;20523;-77
2023/12/15 09:13:11;;;;;;;23.42;6.45;;;7.20;92.20;;;;;;5041106;28;20041;-78
2023/12/15 09:15:41;;;;;;;23.52;6.57;;;7.20;92.20;;;;;;5043600;28;20818;-77
2023/12/15 09:18:08;;;;;;;28.47;7.83;;;7.20;92.20;;;;;;5040100;28;20054;-77
2023/12/15 09:20:35;;;;;;;24.88;7.13;;;7.20;92.10;;;;;;5043820;28;20263;-78
2023/12/15 09:23:06;;;;;;;22.17;6.25;;;7.30;92.20;;;;;;5044716;28;20135;-78
2023/12/15 09:25:33;;;;;;;18.55;5.55;;;7.40;92.10;;;;;;5042196;28;20060;-78
2023/12/15 09:28:02;;;;;;;17.02;6.20;;;7.30;92.10;;;;;;5044918;28;20137;-77
2023/12/15 09:30:29;;;;;;;19.83;5.87;;;7.40;92.10;;;;;;5039453;28;20053;-76
2023/12/15 09:32:57;;;;;;;17.08;4.95;;;7.40;92.10;;;;;;5043980;28;20273;-76
2023/12/15 09:35:25;;;;;;;21.33;5.53;;;7.40;92.20;;;;;;5040002;28;20411;-78
2023/12/15 09:37:52;;;;;;;11.50;3.25;;;7.50;92.20;;;;;;5038500;28;20077;-79
2023/12/15 09:40:23;;;;;;;17.38;4.93;;;7.40;92.10;;;;;;5046175;28;20052;-79
2023/12/15 09:42:50;;;;;;;18.60;5.47;;;7.50;92.10;;;;;;5043074;28;20844;-76
2023/12/15 09:45:18;;;;;;;18.58;6.45;;;7.50;92.10;;;;;;5046604;28;20260;-78
2023/12/15 09:47:47;;;;;;;22.08;6.47;;;7.50;92.10;;;;;;5047681;28;20053;-78
2023/12/15 09:50:19;;;;;;;19.27;6.25;;;7.50;92.00;;;;;;5049160;28;20531;-79
2023/12/15 09:52:47;;;;;;;20.13;6.53;;;7.50;92.10;;;;;;5031232;28;20053;-78
2023/12/15 09:55:14;;;;;;;17.17;6.07;;;7.50;92.10;;;;;;5049307;28;20056;-79
2023/12/15 09:57:42;;;;;;;17.98;6.13;;;7.50;92.10;;;;;;5048291;28;20294;-78
2023/12/15 10:00:09;;;;;;;20.40;6.05;;;7.50;92.10;;;;;;5039131;28;20046;-78
2023/12/15 10:02:41;;;;;;;21.83;6.38;;;7.50;92.10;;;;;;5051890;28;20057;-78
2023/12/15 10:05:11;;;;;;;24.85;6.35;;;7.50;92.00;;;;;;5042383;28;20160;-78
2023/12/15 10:07:39;;;;;;;17.70;4.63;;;7.50;92.10;;;;;;5058402;28;20064;-78
2023/12/15 10:10:11;;;;;;;11.73;3.35;;;7.50;92.10;;;;;;5042433;28;20317;-79
2023/12/15 10:12:38;;;;;;;8.63;2.35;;;7.60;92.10;;;;;;5047232;28;20053;-77
2023/12/15 10:15:06;;;;;;;12.35;3.67;;;7.60;92.00;;;;;;5036248;28;20594;-78
2023/12/15 10:17:33;;;;;;;17.73;4.55;;;7.60;92.10;;;;;;5040416;28;20052;-76
2023/12/15 10:20:07;;;;;;;14.43;4.37;;;7.60;92.10;;;;;;5044907;28;20053;-76
2023/12/15 10:22:34;;;;;;;11.23;3.38;;;7.70;92.00;;;;;;5038959;28;20701;-76
2023/12/15 10:25:02;;;;;;;14.90;4.07;;;7.70;92.00;;;;;;5045181;28;20136;-76
2023/12/15 10:27:29;;;;;;;22.02;5.10;;;7.70;92.10;;;;;;5037510;28;20133;-75
2023/12/15 10:29:56;;;;;;;12.70;3.55;;;7.80;92.10;;;;;;5046073;28;20064;-75
2023/12/15 10:32:23;;;;;;;14.90;4.00;;;7.80;92.20;;;;;;5048364;28;20053;-75
2023/12/15 10:34:52;;;;;;;6.80;1.80;;;7.80;92.20;;;;;;5044872;28;20296;-76
2023/12/15 10:37:19;;;;;;;17.42;4.00;;;7.80;92.20;;;;;;5030937;28;20088;-74
2023/12/15 10:39:46;;;;;;;20.75;4.35;;;7.80;92.30;;;;;;5037832;28;20056;-74
2023/12/15 10:42:15;;;;;;;17.80;4.22;;;7.90;92.30;;;;;;5046837;28;20053;-75
2023/12/15 10:44:43;;;;;;;13.00;4.03;;;7.90;92.30;;;;;;5046527;28;20081;-75
2023/12/15 10:47:11;;;;;;;9.07;2.80;;;7.90;92.30;;;;;;5045454;28;21259;-75
2023/12/15 10:49:39;;;;;;;18.70;4.20;;;8.00;92.20;;;;;;5062360;28;20073;-74
2023/12/15 10:52:07;;;;;;;13.02;3.10;;;8.00;92.20;;;;;;5038036;28;20050;-75
2023/12/15 10:54:37;;;;;;;11.05;2.35;;;8.00;92.20;;;;;;5027596;28;20046;-75
2023/12/15 10:57:04;;;;;;;18.63;3.47;;;8.00;92.20;;;;;;5034683;28;20053;-72
2023/12/15 10:59:32;;;;;;;10.63;3.80;;;8.00;92.10;;;;;;5048187;28;20276;-74
2023/12/15 11:02:00;;;;;;;14.27;3.58;;;8.00;92.00;;;;;;5045978;28;20970;-74
2023/12/15 11:04:27;;;;;;;11.27;2.97;;;8.00;91.90;;;;;;5029134;28;20136;-75
2023/12/15 11:06:55;;;;;;;23.33;4.70;;;8.10;91.80;;;;;;5041231;28;20065;-75
2023/12/15 11:09:30;;;;;;;11.57;3.07;;;8.10;91.70;;;;;;5046358;28;20049;-74
2023/12/15 11:12:31;;;;;;;23.13;3.92;;;8.10;91.70;;;;;;5046398;28;21014;-76
2023/12/15 11:15:02;;;;;;;23.23;5.38;;;8.10;91.70;;;;;;5046671;28;20615;-74
2023/12/15 11:17:30;;;;;;;15.10;3.38;;;8.10;91.70;;;;;;5044754;28;20190;-74
2023/12/15 11:20:02;;;;;;;14.60;4.38;;;8.10;91.70;;;;;;5037437;28;20056;-74
2023/12/15 11:22:30;;;;;;;13.70;2.87;;;8.20;91.70;;;;;;5059119;28;20128;-74
2023/12/15 11:24:57;;;;;;;13.10;3.08;;;8.20;91.70;;;;;;5044545;28;20280;-75
2023/12/15 11:27:25;;;;;;;12.32;3.70;;;8.20;91.80;;;;;;5044908;28;20585;-78
2023/12/15 11:29:51;;;;;;;13.93;2.83;;;8.30;91.70;;;;;;5044655;28;20425;-78
2023/12/15 11:32:30;;;;;;;17.67;4.85;;;8.30;91.60;;;;;;5046054;28;20415;-78
2023/12/15 11:34:58;;;;;;;15.17;4.20;;;8.30;91.60;;;;;;5046360;28;20705;-79
2023/12/15 11:37:25;;;;;;;15.23;2.50;;;8.30;91.60;;;;;;5046229;28;20280;-77
2023/12/15 11:39:53;;;;;;;19.02;4.00;;;8.40;91.50;;;;;;5046526;28;20050;-79
2023/12/15 11:42:20;;;;;;;20.95;4.57;;;8.40;91.50;;;;;;5046236;28;20049;-78
2023/12/15 11:44:48;;;;;;;16.38;3.72;;;8.40;91.50;;;;;;5034831;28;20050;-78
2023/12/15 11:47:15;;;;;;;16.97;3.47;;;8.50;91.50;;;;;;5048442;28;20076;-80
2023/12/15 11:49:43;;;;;;;24.63;4.82;;;8.50;91.40;;;;;;5046198;28;20842;-76
2023/12/15 11:52:12;;;;;;;10.23;2.50;;;8.50;91.20;;;;;;5045051;28;20073;-76
2023/12/15 11:54:39;;;;;;;15.20;2.97;;;8.50;91.20;;;;;;5045337;28;20054;-75
2023/12/15 11:57:07;;;;;;;15.38;4.25;;;8.60;91.20;;;;;;5044635;28;20673;-77
2023/12/15 11:59:45;;;;;;;20.13;3.83;;;8.60;91.10;;;;;;5047602;28;20057;-76
2023/12/15 12:02:16;;;;;;;17.52;4.07;;;8.60;91.00;;;;;;5042653;28;20372;-76
2023/12/15 12:04:47;;;;;;;18.67;3.97;;;8.60;90.90;;;;;;5043369;28;20045;-76
2023/12/15 12:07:14;;;;;;;15.63;3.13;;;8.60;90.70;;;;;;5045145;28;20065;-77
2023/12/15 12:09:42;;;;;;;19.58;3.72;;;8.60;90.70;;;;;;5044835;28;20503;-78
2023/12/15 12:12:09;;;;;;;21.87;3.40;;;8.70;90.70;;;;;;5043396;28;20526;-78
2023/12/15 12:14:42;;;;;;;18.95;3.40;;;8.80;90.60;;;;;;5045302;28;20285;-77
2023/12/15 12:17:10;;;;;;;18.13;2.95;;;8.80;90.50;;;;;;5037339;28;20081;-78
2023/12/15 12:19:40;;;;;;;15.25;3.17;;;8.80;90.50;;;;;;5038530;28;20053;-78
2023/12/15 12:22:12;;;;;;;15.70;3.72;;;8.80;90.50;;;;;;5045084;28;20050;-78
2023/12/15 12:24:39;;;;;;;11.13;2.10;;;8.80;90.60;;;;;;5045394;28;20049;-78
2023/12/15 12:27:07;;;;;;;20.38;4.47;;;8.90;90.50;;;;;;5043509;28;20547;-78
2023/12/15 12:29:37;;;;;;;21.33;3.63;;;8.90;90.40;;;;;;5046969;28;20057;-77
2023/12/15 12:32:06;;;;;;;13.45;2.63;;;8.90;90.50;;;;;;5046628;28;20444;-77
2023/12/15 12:34:33;;;;;;;9.85;1.98;;;9.00;90.40;;;;;;5044132;28;20048;-78
2023/12/15 12:37:00;;;;;;;23.33;4.07;;;9.00;90.30;;;;;;5039095;28;20064;-77
2023/12/15 12:39:28;;;;;;;14.68;3.00;;;9.00;90.20;;;;;;5042375;28;20848;-76
2023/12/15 12:41:55;;;;;;;18.23;3.63;;;9.00;90.30;;;;;;5044348;28;20064;-76
2023/12/15 12:44:22;;;;;;;18.00;3.38;;;9.00;90.30;;;;;;5041960;28;20530;-75